sensor_id;sensor_type;location;lat;lon;timestamp;P1;durP1;ratioP1;P2;durP2;ratioP2
72464;SDS011;60471;52.150;4.508;2023-02-23T00:01:49;89.75;;;43.33;;
72464;SDS011;60471;52.150;4.508;2023-02-23T00:04:15;92.47;;;45.22;;
72464;SDS011;60471;52.150;4.508;2023-02-23T00:06:43;90.65;;;43.55;;
72464;SDS011;60471;52.150;4.508;2023-02-23T00:09:10;94.10;;;45.55;;
72464;SDS011;60471;52.150;4.508;2023-02-23T00:11:49;88.20;;;43.45;;
72464;SDS011;60471;52.150;4.508;2023-02-23T00:14:18;87.40;;;43.00;;
72464;SDS011;60471;52.150;4.508;2023-02-23T00:16:45;99.40;;;44.67;;
72464;SDS011;60471;52.150;4.508;2023-02-23T00:19:12;87.72;;;43.53;;
72464;SDS011;60471;52.150;4.508;2023-02-23T00:21:42;93.57;;;45.67;;
72464;SDS011;60471;52.150;4.508;2023-02-23T00:24:09;89.75;;;44.30;;
72464;SDS011;60471;52.150;4.508;2023-02-23T00:26:43;88.47;;;43.30;;
72464;SDS011;60471;52.150;4.508;2023-02-23T00:29:14;98.15;;;45.97;;
72464;SDS011;60471;52.150;4.508;2023-02-23T00:31:43;97.22;;;44.45;;
72464;SDS011;60471;52.150;4.508;2023-02-23T00:34:11;90.22;;;43.28;;
72464;SDS011;60471;52.150;4.508;2023-02-23T00:36:40;93.28;;;45.47;;
72464;SDS011;60471;52.150;4.508;2023-02-23T00:39:09;99.35;;;44.75;;
72464;SDS011;60471;52.150;4.508;2023-02-23T00:41:54;86.30;;;41.42;;
72464;SDS011;60471;52.150;4.508;2023-02-23T00:44:21;99.93;;;44.70;;
72464;SDS011;60471;52.150;4.508;2023-02-23T00:46:49;97.18;;;44.63;;
72464;SDS011;60471;52.150;4.508;2023-02-23T00:49:16;95.28;;;43.78;;
72464;SDS011;60471;52.150;4.508;2023-02-23T00:51:44;91.15;;;42.53;;
72464;SDS011;60471;52.150;4.508;2023-02-23T00:54:12;89.80;;;43.22;;
72464;SDS011;60471;52.150;4.508;2023-02-23T00:56:40;94.43;;;44.72;;
72464;SDS011;60471;52.150;4.508;2023-02-23T00:59:07;97.50;;;44.00;;
72464;SDS011;60471;52.150;4.508;2023-02-23T01:01:34;88.93;;;42.70;;
72464;SDS011;60471;52.150;4.508;2023-02-23T01:04:02;91.60;;;42.72;;
72464;SDS011;60471;52.150;4.508;2023-02-23T01:06:29;93.18;;;43.38;;
72464;SDS011;60471;52.150;4.508;2023-02-23T01:08:55;95.30;;;43.80;;
72464;SDS011;60471;52.150;4.508;2023-02-23T01:11:23;91.75;;;44.20;;
72464;SDS011;60471;52.150;4.508;2023-02-23T01:13:58;93.13;;;42.30;;
72464;SDS011;60471;52.150;4.508;2023-02-23T01:16:27;90.45;;;42.75;;
72464;SDS011;60471;52.150;4.508;2023-02-23T01:18:58;97.83;;;45.60;;
72464;SDS011;60471;52.150;4.508;2023-02-23T01:21:29;96.60;;;44.55;;
72464;SDS011;60471;52.150;4.508;2023-02-23T01:24:00;84.57;;;42.92;;
72464;SDS011;60471;52.150;4.508;2023-02-23T01:26:28;95.15;;;43.88;;
72464;SDS011;60471;52.150;4.508;2023-02-23T01:29:03;96.35;;;44.97;;
72464;SDS011;60471;52.150;4.508;2023-02-23T01:31:36;92.97;;;44.83;;
72464;SDS011;60471;52.150;4.508;2023-02-23T01:34:05;93.80;;;42.85;;
72464;SDS011;60471;52.150;4.508;2023-02-23T01:36:34;93.22;;;44.30;;
72464;SDS011;60471;52.150;4.508;2023-02-23T01:39:04;90.15;;;42.92;;
72464;SDS011;60471;52.150;4.508;2023-02-23T01:41:33;97.75;;;43.05;;
72464;SDS011;60471;52.150;4.508;2023-02-23T01:44:03;96.00;;;43.83;;
72464;SDS011;60471;52.150;4.508;2023-02-23T01:46:36;94.20;;;43.60;;
72464;SDS011;60471;52.150;4.508;2023-02-23T01:49:09;94.55;;;43.70;;
72464;SDS011;60471;52.150;4.508;2023-02-23T01:51:45;101.65;;;43.92;;
72464;SDS011;60471;52.150;4.508;2023-02-23T01:54:25;103.80;;;44.80;;
72464;SDS011;60471;52.150;4.508;2023-02-23T01:56:57;105.03;;;44.38;;
72464;SDS011;60471;52.150;4.508;2023-02-23T01:59:31;96.55;;;44.58;;
72464;SDS011;60471;52.150;4.508;2023-02-23T02:01:59;96.95;;;43.70;;
72464;SDS011;60471;52.150;4.508;2023-02-23T02:04:26;101.43;;;44.53;;
72464;SDS011;60471;52.150;4.508;2023-02-23T02:06:58;98.13;;;42.50;;
72464;SDS011;60471;52.150;4.508;2023-02-23T02:09:28;100.35;;;42.83;;
72464;SDS011;60471;52.150;4.508;2023-02-23T02:12:02;95.55;;;42.85;;
72464;SDS011;60471;52.150;4.508;2023-02-23T02:14:33;107.75;;;43.55;;
72464;SDS011;60471;52.150;4.508;2023-02-23T02:20:59;94.00;;;43.05;;
72464;SDS011;60471;52.150;4.508;2023-02-23T02:39:18;109.70;;;45.15;;
72464;SDS011;60471;52.150;4.508;2023-02-23T02:42:21;104.28;;;45.00;;
72464;SDS011;60471;52.150;4.508;2023-02-23T02:51:43;104.35;;;43.42;;
72464;SDS011;60471;52.150;4.508;2023-02-23T02:54:30;112.75;;;45.60;;
72464;SDS011;60471;52.150;4.508;2023-02-23T02:57:03;116.25;;;46.17;;
72464;SDS011;60471;52.150;4.508;2023-02-23T02:59:41;112.30;;;45.78;;
72464;SDS011;60471;52.150;4.508;2023-02-23T03:02:33;110.03;;;46.45;;
72464;SDS011;60471;52.150;4.508;2023-02-23T03:05:27;110.10;;;44.22;;
72464;SDS011;60471;52.150;4.508;2023-02-23T03:08:41;110.25;;;45.63;;
72464;SDS011;60471;52.150;4.508;2023-02-23T03:11:37;113.82;;;45.47;;
72464;SDS011;60471;52.150;4.508;2023-02-23T03:18:11;111.10;;;44.35;;
72464;SDS011;60471;52.150;4.508;2023-02-23T03:22:05;99.47;;;43.00;;
72464;SDS011;60471;52.150;4.508;2023-02-23T03:24:59;111.72;;;47.08;;
72464;SDS011;60471;52.150;4.508;2023-02-23T03:34:19;96.85;;;40.67;;
72464;SDS011;60471;52.150;4.508;2023-02-23T03:37:21;100.97;;;41.72;;
72464;SDS011;60471;52.150;4.508;2023-02-23T03:40:19;100.35;;;43.03;;
72464;SDS011;60471;52.150;4.508;2023-02-23T03:43:22;96.03;;;41.65;;
72464;SDS011;60471;52.150;4.508;2023-02-23T03:46:15;96.32;;;41.55;;
72464;SDS011;60471;52.150;4.508;2023-02-23T03:49:06;97.32;;;41.97;;
72464;SDS011;60471;52.150;4.508;2023-02-23T03:51:59;99.07;;;41.70;;
72464;SDS011;60471;52.150;4.508;2023-02-23T03:54:57;92.55;;;38.80;;
72464;SDS011;60471;52.150;4.508;2023-02-23T03:57:49;98.47;;;42.17;;
72464;SDS011;60471;52.150;4.508;2023-02-23T04:00:40;94.70;;;39.92;;
72464;SDS011;60471;52.150;4.508;2023-02-23T04:03:32;96.63;;;40.63;;
72464;SDS011;60471;52.150;4.508;2023-02-23T04:06:21;96.25;;;41.00;;
72464;SDS011;60471;52.150;4.508;2023-02-23T04:09:11;99.40;;;42.70;;
72464;SDS011;60471;52.150;4.508;2023-02-23T04:14:55;97.45;;;40.92;;
72464;SDS011;60471;52.150;4.508;2023-02-23T04:17:29;91.68;;;39.65;;
72464;SDS011;60471;52.150;4.508;2023-02-23T04:19:56;90.57;;;39.22;;
72464;SDS011;60471;52.150;4.508;2023-02-23T04:22:22;90.70;;;39.72;;
72464;SDS011;60471;52.150;4.508;2023-02-23T04:24:49;89.07;;;38.00;;
72464;SDS011;60471;52.150;4.508;2023-02-23T04:27:16;87.57;;;37.58;;
72464;SDS011;60471;52.150;4.508;2023-02-23T04:29:43;92.72;;;39.10;;
72464;SDS011;60471;52.150;4.508;2023-02-23T04:32:11;90.72;;;39.15;;
72464;SDS011;60471;52.150;4.508;2023-02-23T04:34:43;85.00;;;38.22;;
72464;SDS011;60471;52.150;4.508;2023-02-23T04:37:10;86.40;;;37.47;;
72464;SDS011;60471;52.150;4.508;2023-02-23T04:39:37;89.70;;;38.53;;
72464;SDS011;60471;52.150;4.508;2023-02-23T04:42:04;91.43;;;37.90;;
72464;SDS011;60471;52.150;4.508;2023-02-23T04:44:30;94.85;;;39.00;;
72464;SDS011;60471;52.150;4.508;2023-02-23T04:46:56;85.88;;;37.30;;
72464;SDS011;60471;52.150;4.508;2023-02-23T04:49:23;87.85;;;38.35;;
72464;SDS011;60471;52.150;4.508;2023-02-23T04:51:49;83.72;;;38.22;;
72464;SDS011;60471;52.150;4.508;2023-02-23T04:54:15;82.65;;;37.53;;
72464;SDS011;60471;52.150;4.508;2023-02-23T04:56:42;83.72;;;37.30;;
72464;SDS011;60471;52.150;4.508;2023-02-23T04:59:08;86.00;;;37.03;;
72464;SDS011;60471;52.150;4.508;2023-02-23T05:01:34;91.30;;;39.30;;
72464;SDS011;60471;52.150;4.508;2023-02-23T05:04:01;84.63;;;36.80;;
72464;SDS011;60471;52.150;4.508;2023-02-23T05:06:28;81.10;;;35.28;;
72464;SDS011;60471;52.150;4.508;2023-02-23T05:08:55;87.15;;;36.95;;
72464;SDS011;60471;52.150;4.508;2023-02-23T05:11:21;84.05;;;37.60;;
72464;SDS011;60471;52.150;4.508;2023-02-23T05:13:48;89.30;;;38.78;;
72464;SDS011;60471;52.150;4.508;2023-02-23T05:16:14;79.55;;;36.92;;
72464;SDS011;60471;52.150;4.508;2023-02-23T05:18:40;87.35;;;37.50;;
72464;SDS011;60471;52.150;4.508;2023-02-23T05:21:07;86.13;;;38.35;;
72464;SDS011;60471;52.150;4.508;2023-02-23T05:23:35;84.32;;;37.28;;
72464;SDS011;60471;52.150;4.508;2023-02-23T05:26:03;86.15;;;37.97;;
72464;SDS011;60471;52.150;4.508;2023-02-23T05:28:37;90.32;;;35.88;;
72464;SDS011;60471;52.150;4.508;2023-02-23T05:31:06;93.72;;;37.78;;
72464;SDS011;60471;52.150;4.508;2023-02-23T05:33:33;83.07;;;36.78;;
72464;SDS011;60471;52.150;4.508;2023-02-23T05:36:08;79.75;;;36.13;;
72464;SDS011;60471;52.150;4.508;2023-02-23T05:38:41;85.35;;;37.15;;
72464;SDS011;60471;52.150;4.508;2023-02-23T05:41:09;86.80;;;38.15;;
72464;SDS011;60471;52.150;4.508;2023-02-23T05:43:39;79.75;;;36.38;;
72464;SDS011;60471;52.150;4.508;2023-02-23T05:46:10;88.03;;;36.95;;
72464;SDS011;60471;52.150;4.508;2023-02-23T05:48:41;78.60;;;36.03;;
72464;SDS011;60471;52.150;4.508;2023-02-23T05:51:10;76.93;;;35.25;;
72464;SDS011;60471;52.150;4.508;2023-02-23T05:53:39;81.30;;;36.10;;
72464;SDS011;60471;52.150;4.508;2023-02-23T05:56:06;83.85;;;37.95;;
72464;SDS011;60471;52.150;4.508;2023-02-23T05:58:36;76.53;;;35.33;;
72464;SDS011;60471;52.150;4.508;2023-02-23T06:01:02;82.28;;;37.22;;
72464;SDS011;60471;52.150;4.508;2023-02-23T06:03:29;82.28;;;36.50;;
72464;SDS011;60471;52.150;4.508;2023-02-23T06:05:56;73.18;;;34.40;;
72464;SDS011;60471;52.150;4.508;2023-02-23T06:08:24;82.82;;;36.08;;
72464;SDS011;60471;52.150;4.508;2023-02-23T06:10:51;82.63;;;36.33;;
72464;SDS011;60471;52.150;4.508;2023-02-23T06:13:18;81.85;;;36.83;;
72464;SDS011;60471;52.150;4.508;2023-02-23T06:15:45;82.85;;;37.50;;
72464;SDS011;60471;52.150;4.508;2023-02-23T06:18:12;82.30;;;36.42;;
72464;SDS011;60471;52.150;4.508;2023-02-23T06:20:38;86.22;;;36.85;;
72464;SDS011;60471;52.150;4.508;2023-02-23T06:23:04;87.82;;;36.45;;
72464;SDS011;60471;52.150;4.508;2023-02-23T06:25:32;83.10;;;36.80;;
72464;SDS011;60471;52.150;4.508;2023-02-23T06:27:59;80.80;;;37.08;;
72464;SDS011;60471;52.150;4.508;2023-02-23T06:30:25;146.80;;;70.47;;
72464;SDS011;60471;52.150;4.508;2023-02-23T06:32:51;148.00;;;69.03;;
72464;SDS011;60471;52.150;4.508;2023-02-23T06:35:17;84.20;;;36.95;;
72464;SDS011;60471;52.150;4.508;2023-02-23T06:37:44;86.97;;;36.80;;
72464;SDS011;60471;52.150;4.508;2023-02-23T06:40:10;78.45;;;34.95;;
72464;SDS011;60471;52.150;4.508;2023-02-23T06:42:36;82.97;;;35.40;;
72464;SDS011;60471;52.150;4.508;2023-02-23T06:45:03;91.00;;;39.08;;
72464;SDS011;60471;52.150;4.508;2023-02-23T06:47:30;74.75;;;34.72;;
72464;SDS011;60471;52.150;4.508;2023-02-23T06:49:56;85.32;;;36.33;;
72464;SDS011;60471;52.150;4.508;2023-02-23T06:52:24;79.03;;;34.20;;
72464;SDS011;60471;52.150;4.508;2023-02-23T06:54:50;291.90;;;148.75;;
72464;SDS011;60471;52.150;4.508;2023-02-23T06:57:17;147.73;;;67.95;;
72464;SDS011;60471;52.150;4.508;2023-02-23T06:59:44;81.47;;;35.33;;
72464;SDS011;60471;52.150;4.508;2023-02-23T07:02:11;167.40;;;79.88;;
72464;SDS011;60471;52.150;4.508;2023-02-23T07:04:38;161.43;;;79.18;;
72464;SDS011;60471;52.150;4.508;2023-02-23T07:07:04;89.70;;;41.08;;
72464;SDS011;60471;52.150;4.508;2023-02-23T07:09:31;83.18;;;34.08;;
72464;SDS011;60471;52.150;4.508;2023-02-23T07:11:58;91.68;;;35.92;;
72464;SDS011;60471;52.150;4.508;2023-02-23T07:14:25;79.10;;;32.72;;
72464;SDS011;60471;52.150;4.508;2023-02-23T07:16:51;79.43;;;32.70;;
72464;SDS011;60471;52.150;4.508;2023-02-23T07:19:18;75.60;;;31.92;;
72464;SDS011;60471;52.150;4.508;2023-02-23T07:21:44;72.57;;;29.70;;
72464;SDS011;60471;52.150;4.508;2023-02-23T07:24:10;70.50;;;30.75;;
72464;SDS011;60471;52.150;4.508;2023-02-23T07:26:36;66.47;;;30.27;;
72464;SDS011;60471;52.150;4.508;2023-02-23T07:29:04;65.32;;;27.73;;
72464;SDS011;60471;52.150;4.508;2023-02-23T07:31:30;59.50;;;27.08;;
72464;SDS011;60471;52.150;4.508;2023-02-23T07:33:56;61.38;;;27.63;;
72464;SDS011;60471;52.150;4.508;2023-02-23T07:36:23;66.30;;;27.75;;
72464;SDS011;60471;52.150;4.508;2023-02-23T07:38:49;66.18;;;27.63;;
72464;SDS011;60471;52.150;4.508;2023-02-23T07:41:15;56.85;;;24.67;;
72464;SDS011;60471;52.150;4.508;2023-02-23T07:43:42;57.28;;;24.67;;
72464;SDS011;60471;52.150;4.508;2023-02-23T07:46:08;55.55;;;25.27;;
72464;SDS011;60471;52.150;4.508;2023-02-23T07:48:34;44.83;;;20.88;;
72464;SDS011;60471;52.150;4.508;2023-02-23T07:51:00;266.30;;;140.63;;
72464;SDS011;60471;52.150;4.508;2023-02-23T07:53:26;289.65;;;172.45;;
72464;SDS011;60471;52.150;4.508;2023-02-23T07:55:56;81.65;;;41.88;;
72464;SDS011;60471;52.150;4.508;2023-02-23T07:58:23;44.10;;;22.55;;
72464;SDS011;60471;52.150;4.508;2023-02-23T08:00:49;48.33;;;20.98;;
72464;SDS011;60471;52.150;4.508;2023-02-23T08:03:15;41.42;;;19.42;;
72464;SDS011;60471;52.150;4.508;2023-02-23T08:05:42;43.42;;;18.25;;
72464;SDS011;60471;52.150;4.508;2023-02-23T08:08:09;35.78;;;17.10;;
72464;SDS011;60471;52.150;4.508;2023-02-23T08:10:37;38.03;;;15.40;;
72464;SDS011;60471;52.150;4.508;2023-02-23T08:13:04;34.92;;;15.55;;
72464;SDS011;60471;52.150;4.508;2023-02-23T08:15:30;32.60;;;15.07;;
72464;SDS011;60471;52.150;4.508;2023-02-23T08:17:57;31.00;;;14.50;;
72464;SDS011;60471;52.150;4.508;2023-02-23T08:20:23;32.25;;;14.55;;
72464;SDS011;60471;52.150;4.508;2023-02-23T08:22:53;33.90;;;15.00;;
72464;SDS011;60471;52.150;4.508;2023-02-23T08:25:20;43.20;;;23.52;;
72464;SDS011;60471;52.150;4.508;2023-02-23T08:27:47;115.88;;;63.85;;
72464;SDS011;60471;52.150;4.508;2023-02-23T08:30:19;32.55;;;14.75;;
72464;SDS011;60471;52.150;4.508;2023-02-23T08:32:48;25.60;;;12.15;;
72464;SDS011;60471;52.150;4.508;2023-02-23T08:35:15;27.13;;;12.57;;
72464;SDS011;60471;52.150;4.508;2023-02-23T08:37:44;30.10;;;12.05;;
72464;SDS011;60471;52.150;4.508;2023-02-23T08:40:11;27.08;;;12.82;;
72464;SDS011;60471;52.150;4.508;2023-02-23T08:42:40;28.90;;;12.63;;
72464;SDS011;60471;52.150;4.508;2023-02-23T08:45:07;25.25;;;12.27;;
72464;SDS011;60471;52.150;4.508;2023-02-23T08:47:35;23.67;;;11.38;;
72464;SDS011;60471;52.150;4.508;2023-02-23T08:50:02;26.23;;;12.35;;
72464;SDS011;60471;52.150;4.508;2023-02-23T08:52:31;28.35;;;13.05;;
72464;SDS011;60471;52.150;4.508;2023-02-23T08:54:57;27.42;;;13.57;;
72464;SDS011;60471;52.150;4.508;2023-02-23T08:57:23;24.45;;;12.23;;
72464;SDS011;60471;52.150;4.508;2023-02-23T08:59:50;30.92;;;12.93;;
72464;SDS011;60471;52.150;4.508;2023-02-23T09:02:17;26.63;;;12.48;;
72464;SDS011;60471;52.150;4.508;2023-02-23T09:04:43;27.30;;;12.18;;
72464;SDS011;60471;52.150;4.508;2023-02-23T09:07:13;31.13;;;12.65;;
72464;SDS011;60471;52.150;4.508;2023-02-23T09:12:08;89.35;;;49.35;;
72464;SDS011;60471;52.150;4.508;2023-02-23T09:14:34;79.05;;;46.20;;
72464;SDS011;60471;52.150;4.508;2023-02-23T09:17:01;26.77;;;12.35;;
72464;SDS011;60471;52.150;4.508;2023-02-23T09:19:28;21.95;;;11.23;;
72464;SDS011;60471;52.150;4.508;2023-02-23T09:21:54;24.13;;;11.18;;
72464;SDS011;60471;52.150;4.508;2023-02-23T09:24:20;22.60;;;11.38;;
72464;SDS011;60471;52.150;4.508;2023-02-23T09:26:47;25.08;;;11.13;;
72464;SDS011;60471;52.150;4.508;2023-02-23T09:29:14;23.60;;;10.80;;
72464;SDS011;60471;52.150;4.508;2023-02-23T09:31:40;20.55;;;10.70;;
72464;SDS011;60471;52.150;4.508;2023-02-23T09:34:08;26.10;;;12.35;;
72464;SDS011;60471;52.150;4.508;2023-02-23T09:36:34;25.52;;;10.85;;
72464;SDS011;60471;52.150;4.508;2023-02-23T09:39:01;23.85;;;11.35;;
72464;SDS011;60471;52.150;4.508;2023-02-23T09:47:29;25.05;;;11.65;;
72464;SDS011;60471;52.150;4.508;2023-02-23T09:50:41;24.65;;;12.20;;
72464;SDS011;60471;52.150;4.508;2023-02-23T09:53:05;27.92;;;12.82;;
72464;SDS011;60471;52.150;4.508;2023-02-23T09:55:41;24.85;;;12.20;;
72464;SDS011;60471;52.150;4.508;2023-02-23T09:58:20;27.17;;;12.45;;
72464;SDS011;60471;52.150;4.508;2023-02-23T10:06:31;25.83;;;12.07;;
72464;SDS011;60471;52.150;4.508;2023-02-23T10:09:20;28.00;;;12.30;;
72464;SDS011;60471;52.150;4.508;2023-02-23T10:15:24;63.85;;;33.38;;
72464;SDS011;60471;52.150;4.508;2023-02-23T10:23:35;27.38;;;13.00;;
72464;SDS011;60471;52.150;4.508;2023-02-23T10:26:16;23.05;;;11.57;;
72464;SDS011;60471;52.150;4.508;2023-02-23T10:28:48;27.50;;;11.63;;
72464;SDS011;60471;52.150;4.508;2023-02-23T10:34:03;25.15;;;11.50;;
72464;SDS011;60471;52.150;4.508;2023-02-23T10:36:43;29.10;;;13.73;;
72464;SDS011;60471;52.150;4.508;2023-02-23T10:39:19;44.13;;;25.38;;
72464;SDS011;60471;52.150;4.508;2023-02-23T10:41:45;65.10;;;32.42;;
72464;SDS011;60471;52.150;4.508;2023-02-23T10:44:22;29.42;;;13.88;;
72464;SDS011;60471;52.150;4.508;2023-02-23T10:46:58;31.70;;;15.23;;
72464;SDS011;60471;52.150;4.508;2023-02-23T10:49:39;31.77;;;15.27;;
72464;SDS011;60471;52.150;4.508;2023-02-23T10:55:19;37.90;;;15.32;;
72464;SDS011;60471;52.150;4.508;2023-02-23T10:58:01;35.33;;;17.00;;
72464;SDS011;60471;52.150;4.508;2023-02-23T11:00:38;30.73;;;13.55;;
72464;SDS011;60471;52.150;4.508;2023-02-23T11:03:16;32.67;;;14.50;;
72464;SDS011;60471;52.150;4.508;2023-02-23T11:05:49;39.10;;;16.35;;
72464;SDS011;60471;52.150;4.508;2023-02-23T11:08:31;36.42;;;16.08;;
72464;SDS011;60471;52.150;4.508;2023-02-23T11:11:04;41.13;;;17.83;;
72464;SDS011;60471;52.150;4.508;2023-02-23T11:13:41;42.38;;;19.40;;
72464;SDS011;60471;52.150;4.508;2023-02-23T11:16:11;44.35;;;20.83;;
72464;SDS011;60471;52.150;4.508;2023-02-23T11:18:47;52.67;;;20.87;;
72464;SDS011;60471;52.150;4.508;2023-02-23T11:21:25;50.55;;;20.90;;
72464;SDS011;60471;52.150;4.508;2023-02-23T11:27:02;49.03;;;21.55;;
72464;SDS011;60471;52.150;4.508;2023-02-23T11:29:33;48.35;;;21.38;;
72464;SDS011;60471;52.150;4.508;2023-02-23T11:32:08;47.88;;;21.08;;
72464;SDS011;60471;52.150;4.508;2023-02-23T11:37:41;47.28;;;21.27;;
72464;SDS011;60471;52.150;4.508;2023-02-23T11:40:29;54.58;;;20.98;;
72464;SDS011;60471;52.150;4.508;2023-02-23T11:43:13;52.83;;;21.23;;
72464;SDS011;60471;52.150;4.508;2023-02-23T11:45:44;48.77;;;21.60;;
72464;SDS011;60471;52.150;4.508;2023-02-23T11:48:19;46.80;;;19.70;;
72464;SDS011;60471;52.150;4.508;2023-02-23T11:50:52;52.88;;;22.23;;
72464;SDS011;60471;52.150;4.508;2023-02-23T11:53:43;49.67;;;21.55;;
72464;SDS011;60471;52.150;4.508;2023-02-23T11:56:11;52.40;;;21.58;;
72464;SDS011;60471;52.150;4.508;2023-02-23T11:59:24;46.83;;;22.20;;
72464;SDS011;60471;52.150;4.508;2023-02-23T12:01:47;42.55;;;20.60;;
72464;SDS011;60471;52.150;4.508;2023-02-23T12:10:28;55.33;;;22.70;;
72464;SDS011;60471;52.150;4.508;2023-02-23T12:27:25;44.40;;;21.35;;
72464;SDS011;60471;52.150;4.508;2023-02-23T12:38:45;42.80;;;19.33;;
72464;SDS011;60471;52.150;4.508;2023-02-23T12:41:25;36.10;;;17.08;;
72464;SDS011;60471;52.150;4.508;2023-02-23T12:47:12;46.20;;;21.35;;
72464;SDS011;60471;52.150;4.508;2023-02-23T12:49:46;113.63;;;59.85;;
72464;SDS011;60471;52.150;4.508;2023-02-23T12:52:21;58.25;;;27.40;;
72464;SDS011;60471;52.150;4.508;2023-02-23T12:54:56;48.75;;;22.25;;
72464;SDS011;60471;52.150;4.508;2023-02-23T13:03:24;43.35;;;18.75;;
72464;SDS011;60471;52.150;4.508;2023-02-23T13:14:43;40.30;;;20.45;;
72464;SDS011;60471;52.150;4.508;2023-02-23T13:20:16;30.63;;;13.65;;
72464;SDS011;60471;52.150;4.508;2023-02-23T13:32:12;37.38;;;14.07;;
72464;SDS011;60471;52.150;4.508;2023-02-23T13:37:36;28.15;;;13.13;;
72464;SDS011;60471;52.150;4.508;2023-02-23T13:43:27;31.05;;;13.00;;
72464;SDS011;60471;52.150;4.508;2023-02-23T13:46:18;33.40;;;13.65;;
72464;SDS011;60471;52.150;4.508;2023-02-23T13:52:51;34.30;;;13.15;;
72464;SDS011;60471;52.150;4.508;2023-02-23T13:57:55;30.23;;;12.00;;
72464;SDS011;60471;52.150;4.508;2023-02-23T14:00:31;34.40;;;14.63;;
72464;SDS011;60471;52.150;4.508;2023-02-23T14:03:01;30.35;;;14.45;;
72464;SDS011;60471;52.150;4.508;2023-02-23T14:05:30;39.92;;;17.45;;
72464;SDS011;60471;52.150;4.508;2023-02-23T14:08:17;44.67;;;17.85;;
72464;SDS011;60471;52.150;4.508;2023-02-23T14:10:53;28.60;;;11.57;;
72464;SDS011;60471;52.150;4.508;2023-02-23T14:16:07;24.00;;;9.77;;
72464;SDS011;60471;52.150;4.508;2023-02-23T14:18:54;21.25;;;9.48;;
72464;SDS011;60471;52.150;4.508;2023-02-23T14:22:01;44.67;;;23.70;;
72464;SDS011;60471;52.150;4.508;2023-02-23T14:24:34;19.90;;;7.80;;
72464;SDS011;60471;52.150;4.508;2023-02-23T14:27:18;20.45;;;7.35;;
72464;SDS011;60471;52.150;4.508;2023-02-23T14:30:11;15.63;;;5.78;;
72464;SDS011;60471;52.150;4.508;2023-02-23T14:32:46;14.05;;;4.15;;
72464;SDS011;60471;52.150;4.508;2023-02-23T14:38:48;17.10;;;3.67;;
72464;SDS011;60471;52.150;4.508;2023-02-23T14:41:02;17.52;;;4.47;;
72464;SDS011;60471;52.150;4.508;2023-02-23T14:46:03;19.30;;;6.72;;
72464;SDS011;60471;52.150;4.508;2023-02-23T14:48:39;20.02;;;6.10;;
72464;SDS011;60471;52.150;4.508;2023-02-23T14:51:20;30.05;;;8.07;;
72464;SDS011;60471;52.150;4.508;2023-02-23T14:53:57;19.38;;;8.07;;
72464;SDS011;60471;52.150;4.508;2023-02-23T14:56:25;18.50;;;7.47;;
72464;SDS011;60471;52.150;4.508;2023-02-23T14:58:52;22.55;;;7.45;;
72464;SDS011;60471;52.150;4.508;2023-02-23T15:04:04;20.10;;;5.95;;
72464;SDS011;60471;52.150;4.508;2023-02-23T15:06:53;17.88;;;5.75;;
72464;SDS011;60471;52.150;4.508;2023-02-23T15:09:35;21.00;;;4.75;;
72464;SDS011;60471;52.150;4.508;2023-02-23T15:12:12;19.35;;;5.15;;
72464;SDS011;60471;52.150;4.508;2023-02-23T15:14:48;26.85;;;8.88;;
72464;SDS011;60471;52.150;4.508;2023-02-23T15:17:16;16.92;;;4.22;;
72464;SDS011;60471;52.150;4.508;2023-02-23T15:19:47;18.47;;;3.73;;
72464;SDS011;60471;52.150;4.508;2023-02-23T15:22:27;14.60;;;3.95;;
72464;SDS011;60471;52.150;4.508;2023-02-23T15:25:00;16.92;;;3.50;;
72464;SDS011;60471;52.150;4.508;2023-02-23T15:27:39;17.50;;;3.35;;
72464;SDS011;60471;52.150;4.508;2023-02-23T15:32:47;20.08;;;3.95;;
72464;SDS011;60471;52.150;4.508;2023-02-23T15:35:13;17.77;;;4.43;;
72464;SDS011;60471;52.150;4.508;2023-02-23T15:42:48;23.48;;;5.30;;
72464;SDS011;60471;52.150;4.508;2023-02-23T15:48:01;25.73;;;4.63;;
72464;SDS011;60471;52.150;4.508;2023-02-23T15:50:33;33.60;;;5.50;;
72464;SDS011;60471;52.150;4.508;2023-02-23T15:53:08;27.67;;;5.38;;
72464;SDS011;60471;52.150;4.508;2023-02-23T15:55:48;40.40;;;8.02;;
72464;SDS011;60471;52.150;4.508;2023-02-23T16:00:49;31.23;;;6.00;;
72464;SDS011;60471;52.150;4.508;2023-02-23T16:03:23;26.20;;;6.25;;
72464;SDS011;60471;52.150;4.508;2023-02-23T16:06:03;36.83;;;6.30;;
72464;SDS011;60471;52.150;4.508;2023-02-23T16:08:33;34.30;;;5.38;;
72464;SDS011;60471;52.150;4.508;2023-02-23T16:11:06;25.70;;;4.78;;
72464;SDS011;60471;52.150;4.508;2023-02-23T16:13:44;28.10;;;4.32;;
72464;SDS011;60471;52.150;4.508;2023-02-23T16:16:13;28.63;;;4.63;;
72464;SDS011;60471;52.150;4.508;2023-02-23T16:18:50;35.90;;;5.32;;
72464;SDS011;60471;52.150;4.508;2023-02-23T16:21:27;28.63;;;5.13;;
72464;SDS011;60471;52.150;4.508;2023-02-23T16:23:55;33.80;;;5.63;;
72464;SDS011;60471;52.150;4.508;2023-02-23T16:26:32;42.33;;;5.97;;
72464;SDS011;60471;52.150;4.508;2023-02-23T16:29:13;38.10;;;5.88;;
72464;SDS011;60471;52.150;4.508;2023-02-23T16:31:46;41.40;;;7.00;;
72464;SDS011;60471;52.150;4.508;2023-02-23T16:34:22;40.50;;;6.35;;
72464;SDS011;60471;52.150;4.508;2023-02-23T16:36:55;37.67;;;7.10;;
72464;SDS011;60471;52.150;4.508;2023-02-23T16:39:28;90.55;;;33.92;;
72464;SDS011;60471;52.150;4.508;2023-02-23T16:41:56;43.95;;;8.55;;
72464;SDS011;60471;52.150;4.508;2023-02-23T16:44:25;39.95;;;6.93;;
72464;SDS011;60471;52.150;4.508;2023-02-23T16:49:29;41.67;;;8.00;;
72464;SDS011;60471;52.150;4.508;2023-02-23T16:51:56;49.08;;;7.85;;
72464;SDS011;60471;52.150;4.508;2023-02-23T16:54:24;46.42;;;6.18;;
72464;SDS011;60471;52.150;4.508;2023-02-23T16:56:52;45.25;;;7.18;;
72464;SDS011;60471;52.150;4.508;2023-02-23T16:59:21;41.33;;;6.63;;
72464;SDS011;60471;52.150;4.508;2023-02-23T17:01:48;35.25;;;6.55;;
72464;SDS011;60471;52.150;4.508;2023-02-23T17:04:20;37.30;;;7.20;;
72464;SDS011;60471;52.150;4.508;2023-02-23T17:06:46;38.35;;;7.28;;
72464;SDS011;60471;52.150;4.508;2023-02-23T17:09:22;53.42;;;13.10;;
72464;SDS011;60471;52.150;4.508;2023-02-23T17:11:49;53.83;;;9.90;;
72464;SDS011;60471;52.150;4.508;2023-02-23T17:14:20;32.75;;;5.72;;
72464;SDS011;60471;52.150;4.508;2023-02-23T17:16:52;35.58;;;5.82;;
72464;SDS011;60471;52.150;4.508;2023-02-23T17:19:18;38.70;;;7.00;;
72464;SDS011;60471;52.150;4.508;2023-02-23T17:21:45;36.05;;;6.40;;
72464;SDS011;60471;52.150;4.508;2023-02-23T17:24:11;29.80;;;5.35;;
72464;SDS011;60471;52.150;4.508;2023-02-23T17:26:37;39.33;;;6.20;;
72464;SDS011;60471;52.150;4.508;2023-02-23T17:29:04;34.28;;;5.75;;
72464;SDS011;60471;52.150;4.508;2023-02-23T17:31:30;45.30;;;6.80;;
72464;SDS011;60471;52.150;4.508;2023-02-23T17:33:56;32.78;;;6.40;;
72464;SDS011;60471;52.150;4.508;2023-02-23T17:36:23;33.28;;;5.07;;
72464;SDS011;60471;52.150;4.508;2023-02-23T17:38:52;35.58;;;5.22;;
72464;SDS011;60471;52.150;4.508;2023-02-23T17:41:23;29.73;;;5.22;;
72464;SDS011;60471;52.150;4.508;2023-02-23T17:43:51;35.85;;;5.97;;
72464;SDS011;60471;52.150;4.508;2023-02-23T17:46:18;27.63;;;4.68;;
72464;SDS011;60471;52.150;4.508;2023-02-23T17:48:44;40.85;;;10.98;;